Terminal Aerodrome Forecast
Issued by NWS

Home | Current Version | Previous Version | Text Only | Print | Product List | Glossary On
Versions: 1 2 3 4 5 6 7 8 9 10 11 12 13 14 15 16 17 18
000
FTUS45 KBYZ 251120
TAFLVM
TAF
KLVM 251120Z 2512/2612 30015KT P6SM FEW100 BKN200
     FM251500 09012KT P6SM VCSH SCT080 BKN150
     FM252100 09012KT P6SM VCTS SCT080CB BKN120
     FM260500 VRB05KT P6SM FEW120 BKN200=

USA.gov is the U.S. government's official web portal to all federal, state and local government web resources and services.